sensor_id;sensor_type;location;lat;lon;timestamp;P1;durP1;ratioP1;P2;durP2;ratioP2
54795;SDS011;40693;43.884;20.340;2023-06-14T00:00:42;8.43;;;5.78;;
54795;SDS011;40693;43.884;20.340;2023-06-14T00:03:08;13.82;;;6.20;;
54795;SDS011;40693;43.884;20.340;2023-06-14T00:05:35;11.43;;;5.75;;
54795;SDS011;40693;43.884;20.340;2023-06-14T00:08:07;8.00;;;5.60;;
54795;SDS011;40693;43.884;20.340;2023-06-14T00:10:35;10.23;;;6.50;;
54795;SDS011;40693;43.884;20.340;2023-06-14T00:13:01;10.50;;;5.65;;
54795;SDS011;40693;43.884;20.340;2023-06-14T00:15:28;12.88;;;5.25;;
54795;SDS011;40693;43.884;20.340;2023-06-14T00:17:56;8.75;;;5.80;;
54795;SDS011;40693;43.884;20.340;2023-06-14T00:20:29;7.57;;;4.80;;
54795;SDS011;40693;43.884;20.340;2023-06-14T00:22:59;8.63;;;5.97;;
54795;SDS011;40693;43.884;20.340;2023-06-14T00:25:25;10.57;;;5.75;;
54795;SDS011;40693;43.884;20.340;2023-06-14T00:27:51;7.57;;;6.13;;
54795;SDS011;40693;43.884;20.340;2023-06-14T00:30:20;7.40;;;5.60;;
54795;SDS011;40693;43.884;20.340;2023-06-14T00:32:46;10.88;;;5.35;;
54795;SDS011;40693;43.884;20.340;2023-06-14T00:35:12;11.43;;;5.18;;
54795;SDS011;40693;43.884;20.340;2023-06-14T00:37:38;6.07;;;4.63;;
54795;SDS011;40693;43.884;20.340;2023-06-14T00:40:04;6.55;;;4.57;;
54795;SDS011;40693;43.884;20.340;2023-06-14T00:42:31;8.40;;;6.32;;
54795;SDS011;40693;43.884;20.340;2023-06-14T00:44:57;8.07;;;5.43;;
54795;SDS011;40693;43.884;20.340;2023-06-14T00:47:23;7.47;;;4.53;;
54795;SDS011;40693;43.884;20.340;2023-06-14T00:49:50;11.88;;;5.28;;
54795;SDS011;40693;43.884;20.340;2023-06-14T00:52:17;7.80;;;4.78;;
54795;SDS011;40693;43.884;20.340;2023-06-14T00:54:43;8.50;;;4.22;;
54795;SDS011;40693;43.884;20.340;2023-06-14T00:57:10;7.20;;;5.22;;
54795;SDS011;40693;43.884;20.340;2023-06-14T00:59:46;9.50;;;4.90;;
54795;SDS011;40693;43.884;20.340;2023-06-14T01:02:13;7.82;;;4.85;;
54795;SDS011;40693;43.884;20.340;2023-06-14T01:04:40;8.57;;;5.65;;
54795;SDS011;40693;43.884;20.340;2023-06-14T01:07:15;8.40;;;4.75;;
54795;SDS011;40693;43.884;20.340;2023-06-14T01:15:31;9.25;;;5.32;;
54795;SDS011;40693;43.884;20.340;2023-06-14T01:17:57;6.38;;;4.55;;
54795;SDS011;40693;43.884;20.340;2023-06-14T01:20:28;5.57;;;4.13;;
54795;SDS011;40693;43.884;20.340;2023-06-14T01:22:56;6.75;;;4.63;;
54795;SDS011;40693;43.884;20.340;2023-06-14T01:25:22;6.28;;;4.50;;
54795;SDS011;40693;43.884;20.340;2023-06-14T01:27:48;9.02;;;5.22;;
54795;SDS011;40693;43.884;20.340;2023-06-14T01:30:16;8.65;;;4.63;;
54795;SDS011;40693;43.884;20.340;2023-06-14T01:32:43;12.73;;;4.88;;
54795;SDS011;40693;43.884;20.340;2023-06-14T01:35:09;6.68;;;5.10;;
54795;SDS011;40693;43.884;20.340;2023-06-14T01:37:36;7.88;;;5.53;;
54795;SDS011;40693;43.884;20.340;2023-06-14T01:40:03;9.38;;;4.68;;
54795;SDS011;40693;43.884;20.340;2023-06-14T01:42:31;7.05;;;4.55;;
54795;SDS011;40693;43.884;20.340;2023-06-14T01:44:59;8.05;;;4.50;;
54795;SDS011;40693;43.884;20.340;2023-06-14T01:47:26;8.52;;;4.97;;
54795;SDS011;40693;43.884;20.340;2023-06-14T01:49:52;10.30;;;5.18;;
54795;SDS011;40693;43.884;20.340;2023-06-14T01:52:18;6.78;;;4.45;;
54795;SDS011;40693;43.884;20.340;2023-06-14T01:54:44;9.27;;;5.38;;
54795;SDS011;40693;43.884;20.340;2023-06-14T01:57:11;9.07;;;5.38;;
54795;SDS011;40693;43.884;20.340;2023-06-14T01:59:36;7.25;;;5.00;;
54795;SDS011;40693;43.884;20.340;2023-06-14T02:02:02;11.57;;;5.18;;
54795;SDS011;40693;43.884;20.340;2023-06-14T02:04:28;12.73;;;4.47;;
54795;SDS011;40693;43.884;20.340;2023-06-14T02:06:54;8.45;;;4.90;;
54795;SDS011;40693;43.884;20.340;2023-06-14T02:09:20;7.70;;;5.60;;
54795;SDS011;40693;43.884;20.340;2023-06-14T02:11:45;10.02;;;5.43;;
54795;SDS011;40693;43.884;20.340;2023-06-14T02:14:11;7.40;;;4.57;;
54795;SDS011;40693;43.884;20.340;2023-06-14T02:16:37;8.30;;;4.80;;
54795;SDS011;40693;43.884;20.340;2023-06-14T02:19:04;7.18;;;4.90;;
54795;SDS011;40693;43.884;20.340;2023-06-14T02:21:31;8.82;;;5.05;;
54795;SDS011;40693;43.884;20.340;2023-06-14T02:23:57;10.63;;;5.20;;
54795;SDS011;40693;43.884;20.340;2023-06-14T02:26:23;8.57;;;5.45;;
54795;SDS011;40693;43.884;20.340;2023-06-14T02:28:49;8.98;;;5.50;;
54795;SDS011;40693;43.884;20.340;2023-06-14T02:31:14;6.63;;;4.97;;
54795;SDS011;40693;43.884;20.340;2023-06-14T02:33:41;10.55;;;6.40;;
54795;SDS011;40693;43.884;20.340;2023-06-14T02:36:07;8.70;;;5.00;;
54795;SDS011;40693;43.884;20.340;2023-06-14T02:38:32;7.22;;;4.72;;
54795;SDS011;40693;43.884;20.340;2023-06-14T02:40:58;7.50;;;4.45;;
54795;SDS011;40693;43.884;20.340;2023-06-14T02:43:25;5.53;;;4.85;;
54795;SDS011;40693;43.884;20.340;2023-06-14T02:45:51;8.95;;;5.07;;
54795;SDS011;40693;43.884;20.340;2023-06-14T02:48:17;7.57;;;4.68;;
54795;SDS011;40693;43.884;20.340;2023-06-14T02:50:42;6.70;;;4.00;;
54795;SDS011;40693;43.884;20.340;2023-06-14T02:53:08;11.75;;;5.55;;
54795;SDS011;40693;43.884;20.340;2023-06-14T02:55:34;7.45;;;4.63;;
54795;SDS011;40693;43.884;20.340;2023-06-14T02:58:04;9.25;;;4.47;;
54795;SDS011;40693;43.884;20.340;2023-06-14T03:00:30;6.22;;;4.72;;
54795;SDS011;40693;43.884;20.340;2023-06-14T03:02:56;8.43;;;4.90;;
54795;SDS011;40693;43.884;20.340;2023-06-14T03:05:22;11.68;;;6.72;;
54795;SDS011;40693;43.884;20.340;2023-06-14T03:07:48;7.22;;;4.97;;
54795;SDS011;40693;43.884;20.340;2023-06-14T03:10:15;9.18;;;6.32;;
54795;SDS011;40693;43.884;20.340;2023-06-14T03:12:41;9.88;;;4.65;;
54795;SDS011;40693;43.884;20.340;2023-06-14T03:15:07;9.32;;;6.05;;
54795;SDS011;40693;43.884;20.340;2023-06-14T03:17:34;9.13;;;4.85;;
54795;SDS011;40693;43.884;20.340;2023-06-14T03:20:00;8.15;;;5.13;;
54795;SDS011;40693;43.884;20.340;2023-06-14T03:22:26;7.70;;;5.30;;
54795;SDS011;40693;43.884;20.340;2023-06-14T03:24:53;7.45;;;4.82;;
54795;SDS011;40693;43.884;20.340;2023-06-14T03:27:19;9.05;;;5.03;;
54795;SDS011;40693;43.884;20.340;2023-06-14T03:29:44;11.20;;;6.13;;
54795;SDS011;40693;43.884;20.340;2023-06-14T03:32:10;8.70;;;5.07;;
54795;SDS011;40693;43.884;20.340;2023-06-14T03:34:36;8.90;;;5.28;;
54795;SDS011;40693;43.884;20.340;2023-06-14T03:37:04;7.25;;;5.05;;
54795;SDS011;40693;43.884;20.340;2023-06-14T03:39:30;7.82;;;4.72;;
54795;SDS011;40693;43.884;20.340;2023-06-14T03:41:56;7.28;;;5.13;;
54795;SDS011;40693;43.884;20.340;2023-06-14T03:44:21;10.23;;;4.97;;
54795;SDS011;40693;43.884;20.340;2023-06-14T03:46:47;10.05;;;5.32;;
54795;SDS011;40693;43.884;20.340;2023-06-14T03:49:13;10.50;;;5.03;;
54795;SDS011;40693;43.884;20.340;2023-06-14T03:51:39;7.35;;;5.50;;
54795;SDS011;40693;43.884;20.340;2023-06-14T03:54:05;11.93;;;8.48;;
54795;SDS011;40693;43.884;20.340;2023-06-14T03:56:31;8.20;;;5.65;;
54795;SDS011;40693;43.884;20.340;2023-06-14T03:58:57;8.15;;;5.65;;
54795;SDS011;40693;43.884;20.340;2023-06-14T04:01:23;14.02;;;6.00;;
54795;SDS011;40693;43.884;20.340;2023-06-14T04:03:54;9.65;;;5.15;;
54795;SDS011;40693;43.884;20.340;2023-06-14T04:06:21;6.88;;;5.22;;
54795;SDS011;40693;43.884;20.340;2023-06-14T04:08:49;24.95;;;6.72;;
54795;SDS011;40693;43.884;20.340;2023-06-14T04:11:17;11.15;;;6.05;;
54795;SDS011;40693;43.884;20.340;2023-06-14T04:13:43;7.05;;;5.07;;
54795;SDS011;40693;43.884;20.340;2023-06-14T04:16:09;7.72;;;5.45;;
54795;SDS011;40693;43.884;20.340;2023-06-14T04:18:35;9.27;;;6.22;;
54795;SDS011;40693;43.884;20.340;2023-06-14T04:21:01;9.40;;;4.95;;
54795;SDS011;40693;43.884;20.340;2023-06-14T04:23:26;9.15;;;4.50;;
54795;SDS011;40693;43.884;20.340;2023-06-14T04:25:53;10.57;;;5.45;;
54795;SDS011;40693;43.884;20.340;2023-06-14T04:28:19;7.60;;;4.85;;
54795;SDS011;40693;43.884;20.340;2023-06-14T04:30:44;8.90;;;4.75;;
54795;SDS011;40693;43.884;20.340;2023-06-14T04:33:12;11.00;;;4.95;;
54795;SDS011;40693;43.884;20.340;2023-06-14T04:35:38;9.75;;;5.60;;
54795;SDS011;40693;43.884;20.340;2023-06-14T04:38:05;9.00;;;5.15;;
54795;SDS011;40693;43.884;20.340;2023-06-14T04:40:34;11.77;;;6.40;;
54795;SDS011;40693;43.884;20.340;2023-06-14T04:43:07;11.68;;;7.40;;
54795;SDS011;40693;43.884;20.340;2023-06-14T04:45:42;8.30;;;7.15;;
54795;SDS011;40693;43.884;20.340;2023-06-14T04:48:11;9.02;;;5.50;;
54795;SDS011;40693;43.884;20.340;2023-06-14T04:50:37;9.85;;;5.95;;
54795;SDS011;40693;43.884;20.340;2023-06-14T04:53:05;8.77;;;5.80;;
54795;SDS011;40693;43.884;20.340;2023-06-14T04:55:32;9.43;;;5.57;;
54795;SDS011;40693;43.884;20.340;2023-06-14T04:57:57;11.05;;;6.70;;
54795;SDS011;40693;43.884;20.340;2023-06-14T05:00:23;8.73;;;5.63;;
54795;SDS011;40693;43.884;20.340;2023-06-14T05:02:49;9.27;;;5.63;;
54795;SDS011;40693;43.884;20.340;2023-06-14T05:05:18;8.23;;;5.50;;
54795;SDS011;40693;43.884;20.340;2023-06-14T05:07:44;8.23;;;4.90;;
54795;SDS011;40693;43.884;20.340;2023-06-14T05:10:11;7.35;;;5.10;;
54795;SDS011;40693;43.884;20.340;2023-06-14T05:12:40;9.88;;;5.78;;
54795;SDS011;40693;43.884;20.340;2023-06-14T05:15:08;11.60;;;4.53;;
54795;SDS011;40693;43.884;20.340;2023-06-14T05:17:35;7.15;;;5.47;;
54795;SDS011;40693;43.884;20.340;2023-06-14T05:20:01;6.88;;;5.43;;
54795;SDS011;40693;43.884;20.340;2023-06-14T05:22:27;7.40;;;4.68;;
54795;SDS011;40693;43.884;20.340;2023-06-14T05:24:53;9.13;;;5.38;;
54795;SDS011;40693;43.884;20.340;2023-06-14T05:27:18;8.40;;;5.93;;
54795;SDS011;40693;43.884;20.340;2023-06-14T05:29:44;9.27;;;5.68;;
54795;SDS011;40693;43.884;20.340;2023-06-14T05:32:10;7.95;;;5.18;;
54795;SDS011;40693;43.884;20.340;2023-06-14T05:34:36;12.50;;;5.20;;
54795;SDS011;40693;43.884;20.340;2023-06-14T05:37:01;6.63;;;5.18;;
54795;SDS011;40693;43.884;20.340;2023-06-14T05:39:29;7.45;;;5.05;;
54795;SDS011;40693;43.884;20.340;2023-06-14T05:41:55;9.13;;;5.57;;
54795;SDS011;40693;43.884;20.340;2023-06-14T05:44:20;14.77;;;5.97;;
54795;SDS011;40693;43.884;20.340;2023-06-14T05:46:46;7.18;;;4.93;;
54795;SDS011;40693;43.884;20.340;2023-06-14T05:49:12;8.27;;;5.50;;
54795;SDS011;40693;43.884;20.340;2023-06-14T05:51:37;10.65;;;5.22;;
54795;SDS011;40693;43.884;20.340;2023-06-14T05:54:03;9.70;;;5.20;;
54795;SDS011;40693;43.884;20.340;2023-06-14T05:56:29;8.55;;;5.32;;
54795;SDS011;40693;43.884;20.340;2023-06-14T05:58:56;9.73;;;5.43;;
54795;SDS011;40693;43.884;20.340;2023-06-14T06:01:21;8.85;;;5.50;;
54795;SDS011;40693;43.884;20.340;2023-06-14T06:03:47;7.43;;;5.88;;
54795;SDS011;40693;43.884;20.340;2023-06-14T06:06:13;7.78;;;5.78;;
54795;SDS011;40693;43.884;20.340;2023-06-14T06:08:39;7.55;;;5.60;;
54795;SDS011;40693;43.884;20.340;2023-06-14T06:11:05;6.30;;;4.93;;
54795;SDS011;40693;43.884;20.340;2023-06-14T06:13:31;10.20;;;5.00;;
54795;SDS011;40693;43.884;20.340;2023-06-14T06:15:57;9.15;;;5.88;;
54795;SDS011;40693;43.884;20.340;2023-06-14T06:18:23;7.20;;;5.60;;
54795;SDS011;40693;43.884;20.340;2023-06-14T06:20:49;11.80;;;5.93;;
54795;SDS011;40693;43.884;20.340;2023-06-14T06:23:14;10.13;;;5.78;;
54795;SDS011;40693;43.884;20.340;2023-06-14T06:25:40;7.05;;;5.03;;
54795;SDS011;40693;43.884;20.340;2023-06-14T06:28:06;7.97;;;5.30;;
54795;SDS011;40693;43.884;20.340;2023-06-14T06:30:32;11.70;;;6.55;;
54795;SDS011;40693;43.884;20.340;2023-06-14T06:32:57;8.52;;;5.75;;
54795;SDS011;40693;43.884;20.340;2023-06-14T06:35:23;9.07;;;6.18;;
54795;SDS011;40693;43.884;20.340;2023-06-14T06:37:49;8.93;;;5.47;;
54795;SDS011;40693;43.884;20.340;2023-06-14T06:40:15;12.88;;;7.68;;
54795;SDS011;40693;43.884;20.340;2023-06-14T06:42:41;8.98;;;5.80;;
54795;SDS011;40693;43.884;20.340;2023-06-14T06:45:07;9.52;;;6.40;;
54795;SDS011;40693;43.884;20.340;2023-06-14T06:47:33;8.23;;;5.90;;
54795;SDS011;40693;43.884;20.340;2023-06-14T06:49:58;14.02;;;6.82;;
54795;SDS011;40693;43.884;20.340;2023-06-14T06:52:24;11.45;;;6.65;;
54795;SDS011;40693;43.884;20.340;2023-06-14T06:54:50;12.45;;;6.30;;
54795;SDS011;40693;43.884;20.340;2023-06-14T06:57:19;10.35;;;6.40;;
54795;SDS011;40693;43.884;20.340;2023-06-14T06:59:47;10.15;;;6.47;;
54795;SDS011;40693;43.884;20.340;2023-06-14T07:02:13;12.30;;;6.03;;
54795;SDS011;40693;43.884;20.340;2023-06-14T07:04:39;9.02;;;6.78;;
54795;SDS011;40693;43.884;20.340;2023-06-14T07:07:05;9.32;;;6.15;;
54795;SDS011;40693;43.884;20.340;2023-06-14T07:09:30;11.40;;;7.95;;
54795;SDS011;40693;43.884;20.340;2023-06-14T07:11:56;7.03;;;5.47;;
54795;SDS011;40693;43.884;20.340;2023-06-14T07:14:22;7.70;;;5.70;;
54795;SDS011;40693;43.884;20.340;2023-06-14T07:16:48;8.60;;;7.00;;
54795;SDS011;40693;43.884;20.340;2023-06-14T07:19:14;9.18;;;6.20;;
54795;SDS011;40693;43.884;20.340;2023-06-14T07:21:40;9.43;;;7.93;;
54795;SDS011;40693;43.884;20.340;2023-06-14T07:24:06;11.07;;;5.90;;
54795;SDS011;40693;43.884;20.340;2023-06-14T07:26:33;8.05;;;5.40;;
54795;SDS011;40693;43.884;20.340;2023-06-14T07:29:00;11.00;;;6.20;;
54795;SDS011;40693;43.884;20.340;2023-06-14T07:31:26;10.75;;;6.82;;
54795;SDS011;40693;43.884;20.340;2023-06-14T07:33:52;9.07;;;6.13;;
54795;SDS011;40693;43.884;20.340;2023-06-14T07:36:18;7.90;;;5.70;;
54795;SDS011;40693;43.884;20.340;2023-06-14T07:38:43;13.20;;;6.70;;
54795;SDS011;40693;43.884;20.340;2023-06-14T07:41:10;8.80;;;5.43;;
54795;SDS011;40693;43.884;20.340;2023-06-14T07:43:35;8.38;;;5.65;;
54795;SDS011;40693;43.884;20.340;2023-06-14T07:46:01;8.02;;;5.28;;
54795;SDS011;40693;43.884;20.340;2023-06-14T07:48:27;6.68;;;5.20;;
54795;SDS011;40693;43.884;20.340;2023-06-14T07:50:53;5.72;;;4.93;;
54795;SDS011;40693;43.884;20.340;2023-06-14T07:53:19;7.32;;;4.35;;
54795;SDS011;40693;43.884;20.340;2023-06-14T07:55:45;6.25;;;4.28;;
54795;SDS011;40693;43.884;20.340;2023-06-14T07:58:12;5.30;;;3.28;;
54795;SDS011;40693;43.884;20.340;2023-06-14T08:00:38;5.57;;;3.60;;
54795;SDS011;40693;43.884;20.340;2023-06-14T08:03:03;5.50;;;3.72;;
54795;SDS011;40693;43.884;20.340;2023-06-14T08:05:29;4.15;;;3.20;;
54795;SDS011;40693;43.884;20.340;2023-06-14T08:07:55;8.95;;;4.00;;
54795;SDS011;40693;43.884;20.340;2023-06-14T08:10:22;6.75;;;4.43;;
54795;SDS011;40693;43.884;20.340;2023-06-14T08:12:48;3.90;;;2.40;;
54795;SDS011;40693;43.884;20.340;2023-06-14T08:15:15;5.38;;;3.42;;
54795;SDS011;40693;43.884;20.340;2023-06-14T08:17:44;3.92;;;2.83;;
54795;SDS011;40693;43.884;20.340;2023-06-14T08:20:11;5.53;;;4.13;;
54795;SDS011;40693;43.884;20.340;2023-06-14T08:22:38;5.60;;;3.55;;
54795;SDS011;40693;43.884;20.340;2023-06-14T08:25:04;4.03;;;2.78;;
54795;SDS011;40693;43.884;20.340;2023-06-14T08:27:31;5.47;;;2.75;;
54795;SDS011;40693;43.884;20.340;2023-06-14T08:29:57;6.55;;;3.15;;
54795;SDS011;40693;43.884;20.340;2023-06-14T08:32:23;5.10;;;2.95;;
54795;SDS011;40693;43.884;20.340;2023-06-14T08:34:49;5.72;;;3.17;;
54795;SDS011;40693;43.884;20.340;2023-06-14T08:37:14;5.63;;;4.07;;
54795;SDS011;40693;43.884;20.340;2023-06-14T08:39:40;3.97;;;3.28;;
54795;SDS011;40693;43.884;20.340;2023-06-14T08:42:07;4.68;;;2.90;;
54795;SDS011;40693;43.884;20.340;2023-06-14T08:44:34;2.72;;;2.42;;
54795;SDS011;40693;43.884;20.340;2023-06-14T08:47:00;6.70;;;2.65;;
54795;SDS011;40693;43.884;20.340;2023-06-14T08:49:25;4.00;;;2.63;;
54795;SDS011;40693;43.884;20.340;2023-06-14T08:51:58;6.00;;;3.30;;
54795;SDS011;40693;43.884;20.340;2023-06-14T08:54:25;3.85;;;2.85;;
54795;SDS011;40693;43.884;20.340;2023-06-14T08:56:55;7.47;;;3.45;;
54795;SDS011;40693;43.884;20.340;2023-06-14T08:59:27;5.57;;;2.65;;
54795;SDS011;40693;43.884;20.340;2023-06-14T09:01:53;6.60;;;2.60;;
54795;SDS011;40693;43.884;20.340;2023-06-14T09:04:22;3.97;;;3.13;;
54795;SDS011;40693;43.884;20.340;2023-06-14T09:06:50;4.53;;;2.80;;
54795;SDS011;40693;43.884;20.340;2023-06-14T09:09:20;6.47;;;2.92;;
54795;SDS011;40693;43.884;20.340;2023-06-14T09:11:48;3.85;;;2.95;;
54795;SDS011;40693;43.884;20.340;2023-06-14T09:14:17;4.90;;;2.53;;
54795;SDS011;40693;43.884;20.340;2023-06-14T09:16:44;6.25;;;2.97;;
54795;SDS011;40693;43.884;20.340;2023-06-14T09:19:13;3.70;;;2.58;;
54795;SDS011;40693;43.884;20.340;2023-06-14T09:21:47;5.68;;;3.10;;
54795;SDS011;40693;43.884;20.340;2023-06-14T09:24:13;8.27;;;3.03;;
54795;SDS011;40693;43.884;20.340;2023-06-14T09:26:40;7.00;;;3.70;;
54795;SDS011;40693;43.884;20.340;2023-06-14T09:29:06;6.10;;;2.97;;
54795;SDS011;40693;43.884;20.340;2023-06-14T09:31:34;4.80;;;3.05;;
54795;SDS011;40693;43.884;20.340;2023-06-14T09:34:01;3.90;;;2.78;;
54795;SDS011;40693;43.884;20.340;2023-06-14T09:36:27;2.80;;;2.20;;
54795;SDS011;40693;43.884;20.340;2023-06-14T09:38:57;2.95;;;2.20;;
54795;SDS011;40693;43.884;20.340;2023-06-14T09:41:30;3.63;;;2.42;;
54795;SDS011;40693;43.884;20.340;2023-06-14T09:46:26;4.38;;;2.80;;
54795;SDS011;40693;43.884;20.340;2023-06-14T09:48:52;11.75;;;4.00;;
54795;SDS011;40693;43.884;20.340;2023-06-14T09:51:18;9.38;;;4.20;;
54795;SDS011;40693;43.884;20.340;2023-06-14T09:53:46;5.78;;;3.13;;
54795;SDS011;40693;43.884;20.340;2023-06-14T09:56:14;5.53;;;2.53;;
54795;SDS011;40693;43.884;20.340;2023-06-14T09:58:48;7.45;;;2.63;;
54795;SDS011;40693;43.884;20.340;2023-06-14T10:01:19;4.65;;;2.72;;
54795;SDS011;40693;43.884;20.340;2023-06-14T10:03:45;4.50;;;3.08;;
54795;SDS011;40693;43.884;20.340;2023-06-14T10:06:11;4.72;;;2.75;;
54795;SDS011;40693;43.884;20.340;2023-06-14T10:08:37;3.90;;;2.65;;
54795;SDS011;40693;43.884;20.340;2023-06-14T10:11:05;3.72;;;2.33;;
54795;SDS011;40693;43.884;20.340;2023-06-14T10:13:31;4.28;;;3.17;;
54795;SDS011;40693;43.884;20.340;2023-06-14T10:18:59;5.53;;;3.58;;
54795;SDS011;40693;43.884;20.340;2023-06-14T10:24:23;4.93;;;3.53;;
54795;SDS011;40693;43.884;20.340;2023-06-14T10:26:55;4.53;;;2.75;;
54795;SDS011;40693;43.884;20.340;2023-06-14T10:29:24;6.75;;;3.60;;
54795;SDS011;40693;43.884;20.340;2023-06-14T10:31:53;6.97;;;3.70;;
54795;SDS011;40693;43.884;20.340;2023-06-14T10:37:01;5.85;;;3.17;;
54795;SDS011;40693;43.884;20.340;2023-06-14T10:39:28;4.25;;;2.80;;
54795;SDS011;40693;43.884;20.340;2023-06-14T10:41:55;4.82;;;3.53;;
54795;SDS011;40693;43.884;20.340;2023-06-14T10:46:48;3.63;;;2.63;;
54795;SDS011;40693;43.884;20.340;2023-06-14T10:49:20;5.53;;;3.08;;
54795;SDS011;40693;43.884;20.340;2023-06-14T10:52:06;5.35;;;2.70;;
54795;SDS011;40693;43.884;20.340;2023-06-14T10:54:37;5.78;;;2.90;;
54795;SDS011;40693;43.884;20.340;2023-06-14T10:57:03;4.10;;;3.20;;
54795;SDS011;40693;43.884;20.340;2023-06-14T10:59:32;4.20;;;3.22;;
54795;SDS011;40693;43.884;20.340;2023-06-14T11:04:49;7.35;;;3.65;;
54795;SDS011;40693;43.884;20.340;2023-06-14T11:12:40;2.67;;;1.70;;
54795;SDS011;40693;43.884;20.340;2023-06-14T11:15:07;3.38;;;2.60;;
54795;SDS011;40693;43.884;20.340;2023-06-14T11:17:35;3.05;;;2.25;;
54795;SDS011;40693;43.884;20.340;2023-06-14T11:20:12;3.78;;;2.22;;
54795;SDS011;40693;43.884;20.340;2023-06-14T11:22:41;4.75;;;2.80;;
54795;SDS011;40693;43.884;20.340;2023-06-14T11:25:13;4.50;;;2.60;;
54795;SDS011;40693;43.884;20.340;2023-06-14T11:27:43;2.67;;;2.30;;
54795;SDS011;40693;43.884;20.340;2023-06-14T11:30:09;3.90;;;2.65;;
54795;SDS011;40693;43.884;20.340;2023-06-14T11:32:36;3.78;;;2.90;;
54795;SDS011;40693;43.884;20.340;2023-06-14T11:35:03;3.47;;;2.40;;
54795;SDS011;40693;43.884;20.340;2023-06-14T11:37:33;4.93;;;2.53;;
54795;SDS011;40693;43.884;20.340;2023-06-14T11:39:59;5.80;;;2.63;;
54795;SDS011;40693;43.884;20.340;2023-06-14T11:42:26;5.50;;;2.50;;
54795;SDS011;40693;43.884;20.340;2023-06-14T11:44:55;4.10;;;2.42;;
54795;SDS011;40693;43.884;20.340;2023-06-14T11:47:21;3.42;;;2.10;;
54795;SDS011;40693;43.884;20.340;2023-06-14T11:49:48;5.75;;;2.80;;
54795;SDS011;40693;43.884;20.340;2023-06-14T11:52:14;4.07;;;2.83;;
54795;SDS011;40693;43.884;20.340;2023-06-14T11:54:47;7.13;;;2.85;;
54795;SDS011;40693;43.884;20.340;2023-06-14T11:57:13;3.08;;;2.10;;
54795;SDS011;40693;43.884;20.340;2023-06-14T11:59:39;3.22;;;2.20;;
54795;SDS011;40693;43.884;20.340;2023-06-14T12:02:05;5.15;;;2.30;;
54795;SDS011;40693;43.884;20.340;2023-06-14T12:04:32;4.38;;;2.97;;
54795;SDS011;40693;43.884;20.340;2023-06-14T12:07:08;4.10;;;2.60;;
54795;SDS011;40693;43.884;20.340;2023-06-14T12:09:41;3.60;;;2.28;;
54795;SDS011;40693;43.884;20.340;2023-06-14T12:12:12;3.53;;;2.15;;
54795;SDS011;40693;43.884;20.340;2023-06-14T12:14:37;5.50;;;2.92;;
54795;SDS011;40693;43.884;20.340;2023-06-14T12:17:06;4.63;;;2.50;;
54795;SDS011;40693;43.884;20.340;2023-06-14T12:19:32;4.82;;;2.33;;
54795;SDS011;40693;43.884;20.340;2023-06-14T12:22:03;4.80;;;2.72;;
54795;SDS011;40693;43.884;20.340;2023-06-14T12:24:30;4.80;;;2.60;;
54795;SDS011;40693;43.884;20.340;2023-06-14T12:26:57;4.18;;;2.53;;
54795;SDS011;40693;43.884;20.340;2023-06-14T12:29:29;3.53;;;2.63;;
54795;SDS011;40693;43.884;20.340;2023-06-14T12:31:55;2.88;;;2.08;;
54795;SDS011;40693;43.884;20.340;2023-06-14T12:34:25;2.80;;;1.98;;
54795;SDS011;40693;43.884;20.340;2023-06-14T12:36:52;3.92;;;2.53;;
54795;SDS011;40693;43.884;20.340;2023-06-14T12:39:18;6.28;;;2.40;;
54795;SDS011;40693;43.884;20.340;2023-06-14T12:41:45;9.85;;;3.92;;
54795;SDS011;40693;43.884;20.340;2023-06-14T12:44:12;5.00;;;2.60;;
54795;SDS011;40693;43.884;20.340;2023-06-14T12:46:39;4.88;;;2.55;;
54795;SDS011;40693;43.884;20.340;2023-06-14T12:49:07;4.63;;;2.22;;
54795;SDS011;40693;43.884;20.340;2023-06-14T12:51:34;5.82;;;2.58;;
54795;SDS011;40693;43.884;20.340;2023-06-14T12:54:00;3.42;;;2.35;;
54795;SDS011;40693;43.884;20.340;2023-06-14T12:56:25;4.07;;;3.05;;
54795;SDS011;40693;43.884;20.340;2023-06-14T12:58:52;3.97;;;2.80;;
54795;SDS011;40693;43.884;20.340;2023-06-14T13:01:18;4.55;;;3.13;;
54795;SDS011;40693;43.884;20.340;2023-06-14T13:03:45;7.63;;;4.30;;
54795;SDS011;40693;43.884;20.340;2023-06-14T13:06:15;6.28;;;3.80;;
54795;SDS011;40693;43.884;20.340;2023-06-14T13:08:41;4.47;;;2.90;;
54795;SDS011;40693;43.884;20.340;2023-06-14T13:11:07;4.35;;;2.70;;
54795;SDS011;40693;43.884;20.340;2023-06-14T13:13:32;4.95;;;3.13;;
54795;SDS011;40693;43.884;20.340;2023-06-14T13:15:58;4.72;;;2.95;;
54795;SDS011;40693;43.884;20.340;2023-06-14T13:18:24;4.25;;;2.95;;
54795;SDS011;40693;43.884;20.340;2023-06-14T13:20:50;6.22;;;2.45;;
54795;SDS011;40693;43.884;20.340;2023-06-14T13:23:16;4.93;;;3.30;;
54795;SDS011;40693;43.884;20.340;2023-06-14T13:25:42;5.90;;;3.25;;
54795;SDS011;40693;43.884;20.340;2023-06-14T13:28:07;7.13;;;3.03;;
54795;SDS011;40693;43.884;20.340;2023-06-14T13:30:34;4.10;;;2.28;;
54795;SDS011;40693;43.884;20.340;2023-06-14T13:33:00;5.32;;;3.03;;
54795;SDS011;40693;43.884;20.340;2023-06-14T13:35:26;3.85;;;2.75;;
54795;SDS011;40693;43.884;20.340;2023-06-14T13:37:52;5.03;;;3.17;;
54795;SDS011;40693;43.884;20.340;2023-06-14T13:40:18;5.90;;;4.05;;
54795;SDS011;40693;43.884;20.340;2023-06-14T13:42:44;7.35;;;3.55;;
54795;SDS011;40693;43.884;20.340;2023-06-14T13:45:11;5.25;;;2.88;;
54795;SDS011;40693;43.884;20.340;2023-06-14T13:47:38;5.10;;;2.70;;
54795;SDS011;40693;43.884;20.340;2023-06-14T13:50:05;5.10;;;2.40;;
54795;SDS011;40693;43.884;20.340;2023-06-14T13:52:32;4.07;;;2.90;;
54795;SDS011;40693;43.884;20.340;2023-06-14T13:54:57;4.90;;;3.25;;
54795;SDS011;40693;43.884;20.340;2023-06-14T13:57:23;5.18;;;2.53;;
54795;SDS011;40693;43.884;20.340;2023-06-14T13:59:49;5.68;;;2.72;;
54795;SDS011;40693;43.884;20.340;2023-06-14T14:02:15;6.85;;;2.65;;
54795;SDS011;40693;43.884;20.340;2023-06-14T14:04:41;4.30;;;2.50;;
54795;SDS011;40693;43.884;20.340;2023-06-14T14:07:06;7.13;;;3.10;;
54795;SDS011;40693;43.884;20.340;2023-06-14T14:09:33;6.75;;;3.97;;
54795;SDS011;40693;43.884;20.340;2023-06-14T14:11:59;6.68;;;4.38;;
54795;SDS011;40693;43.884;20.340;2023-06-14T14:14:27;6.43;;;3.80;;
54795;SDS011;40693;43.884;20.340;2023-06-14T14:16:53;5.88;;;4.03;;
54795;SDS011;40693;43.884;20.340;2023-06-14T14:19:20;8.38;;;4.60;;
54795;SDS011;40693;43.884;20.340;2023-06-14T14:21:46;10.20;;;5.43;;
54795;SDS011;40693;43.884;20.340;2023-06-14T14:24:12;11.60;;;6.78;;
54795;SDS011;40693;43.884;20.340;2023-06-14T14:26:38;13.50;;;5.65;;
54795;SDS011;40693;43.884;20.340;2023-06-14T14:29:04;11.27;;;5.05;;
54795;SDS011;40693;43.884;20.340;2023-06-14T14:31:31;11.15;;;4.32;;
54795;SDS011;40693;43.884;20.340;2023-06-14T14:33:56;7.72;;;3.88;;
54795;SDS011;40693;43.884;20.340;2023-06-14T14:36:22;7.80;;;3.60;;
54795;SDS011;40693;43.884;20.340;2023-06-14T14:38:48;7.30;;;5.05;;
54795;SDS011;40693;43.884;20.340;2023-06-14T14:41:13;13.70;;;5.85;;
54795;SDS011;40693;43.884;20.340;2023-06-14T14:43:39;9.68;;;4.93;;
54795;SDS011;40693;43.884;20.340;2023-06-14T14:46:05;7.22;;;4.18;;
54795;SDS011;40693;43.884;20.340;2023-06-14T14:48:31;6.78;;;4.88;;
54795;SDS011;40693;43.884;20.340;2023-06-14T14:50:56;10.80;;;5.70;;
54795;SDS011;40693;43.884;20.340;2023-06-14T14:53:22;7.00;;;4.65;;
54795;SDS011;40693;43.884;20.340;2023-06-14T14:55:48;10.60;;;5.57;;
54795;SDS011;40693;43.884;20.340;2023-06-14T14:58:14;6.32;;;3.53;;